Time;durP1;ratioP1;P1;durP2;ratioP2;P2;SDS_P1;SDS_P2;PMS_P1;PMS_P2;Temp;Humidity;BMP_temperature;BMP_pressure;BME280_temperature;BME280_humidity;BME280_pressure;Samples;Min_cycle;Max_cycle;Signal;HPM_P1;HPM_P2
2020/12/02 00:00:14;;;;;;;22.37;14.73;;;7.10;99.90;;;;;;4406329;32;20143;-69
2020/12/02 00:02:49;;;;;;;19.47;14.03;;;7.10;99.90;;;;;;4393976;32;20596;-68
2020/12/02 00:05:20;;;;;;;18.83;13.10;;;7.10;99.90;;;;;;4391159;32;20175;-67
2020/12/02 00:07:51;;;;;;;18.23;13.67;;;7.20;99.90;;;;;;4395737;32;20148;-68
2020/12/02 00:10:25;;;;;;;18.83;14.57;;;7.20;99.90;;;;;;4396410;32;20164;-67
2020/12/02 00:12:52;;;;;;;22.73;14.87;;;7.20;99.90;;;;;;4398234;32;20163;-68
2020/12/02 00:15:24;;;;;;;23.20;14.57;;;7.20;99.90;;;;;;4397692;32;20170;-69
2020/12/02 00:17:59;;;;;;;20.07;14.53;;;7.10;99.90;;;;;;4395149;32;20234;-70
2020/12/02 00:20:31;;;;;;;20.37;14.07;;;7.10;99.90;;;;;;4401227;32;20262;-68
2020/12/02 00:23:01;;;;;;;21.23;14.97;;;7.20;99.90;;;;;;4400173;32;20622;-67
2020/12/02 00:25:42;;;;;;;20.87;13.80;;;7.20;99.90;;;;;;4406124;32;20159;-68
2020/12/02 00:28:45;;;;;;;22.90;14.33;;;7.10;99.90;;;;;;4393670;32;20170;-68
2020/12/02 00:31:19;;;;;;;21.20;14.67;;;7.30;99.90;;;;;;4391249;32;20217;-68
2020/12/02 00:33:54;;;;;;;20.73;14.07;;;7.20;99.90;;;;;;4404276;32;20219;-68
2020/12/02 00:36:29;;;;;;;23.70;14.93;;;7.20;99.90;;;;;;4405830;32;20143;-68
2020/12/02 00:38:58;;;;;;;21.67;14.40;;;7.10;99.90;;;;;;4405467;32;20209;-68
2020/12/02 00:41:26;;;;;;;22.10;14.53;;;7.10;99.90;;;;;;4402430;32;20546;-70
2020/12/02 00:43:54;;;;;;;24.83;15.60;;;7.20;99.90;;;;;;4399713;32;20179;-67
2020/12/02 00:46:23;;;;;;;20.40;14.87;;;7.10;99.90;;;;;;4401551;32;20151;-69
2020/12/02 00:48:55;;;;;;;24.70;16.17;;;7.00;99.90;;;;;;4403310;32;20208;-68
2020/12/02 00:51:23;;;;;;;21.33;16.00;;;7.00;99.90;;;;;;4404621;32;20143;-68
2020/12/02 00:54:00;;;;;;;22.17;15.23;;;7.00;99.90;;;;;;4404065;32;20174;-68
2020/12/02 00:59:17;;;;;;;20.90;14.60;;;7.10;99.90;;;;;;4343439;33;20575;-68
2020/12/02 01:01:58;;;;;;;21.70;14.77;;;7.10;99.90;;;;;;4343824;33;20157;-68
2020/12/02 01:04:27;;;;;;;22.43;15.53;;;7.10;99.90;;;;;;4343733;33;20157;-69
2020/12/02 01:06:59;;;;;;;22.77;16.40;;;7.20;99.90;;;;;;4342652;33;20207;-67
2020/12/02 01:09:27;;;;;;;21.20;15.00;;;7.10;99.90;;;;;;4343264;33;20224;-68
2020/12/02 01:11:56;;;;;;;19.97;14.20;;;7.20;99.90;;;;;;4343642;33;20169;-69
2020/12/02 01:14:35;;;;;;;20.67;15.13;;;7.10;99.90;;;;;;4343375;33;20169;-69
2020/12/02 01:17:03;;;;;;;20.63;14.87;;;7.10;99.90;;;;;;4342810;33;20164;-69
2020/12/02 01:19:34;;;;;;;18.90;13.97;;;7.30;99.90;;;;;;4337600;33;20216;-66
2020/12/02 01:22:05;;;;;;;21.17;13.23;;;7.20;99.90;;;;;;4342859;33;20169;-67
2020/12/02 01:24:45;;;;;;;21.33;14.67;;;7.30;99.90;;;;;;4389769;32;20152;-67
2020/12/02 01:27:28;;;;;;;20.67;14.40;;;7.20;99.90;;;;;;4397010;32;20147;-68
2020/12/02 01:30:01;;;;;;;21.10;14.10;;;7.30;99.90;;;;;;4401329;32;20201;-67
2020/12/02 01:32:27;;;;;;;22.80;15.63;;;7.20;99.90;;;;;;4403057;32;20213;-69
2020/12/02 01:34:54;;;;;;;25.40;15.97;;;7.20;99.90;;;;;;4395622;32;20289;-69
2020/12/02 01:37:35;;;;;;;23.60;15.70;;;7.20;99.90;;;;;;4400415;32;20164;-69
2020/12/02 01:40:15;;;;;;;24.40;15.53;;;7.10;99.90;;;;;;4390140;32;20187;-69
2020/12/02 01:42:44;;;;;;;23.67;15.80;;;7.00;99.90;;;;;;4391315;32;20171;-68
2020/12/02 01:45:17;;;;;;;23.30;15.43;;;7.10;99.90;;;;;;4391385;32;20144;-67
2020/12/02 01:48:02;;;;;;;24.80;16.50;;;7.20;99.90;;;;;;4400136;32;20239;-68
2020/12/02 01:50:43;;;;;;;25.50;17.07;;;7.20;99.90;;;;;;4396406;32;20152;-68
2020/12/02 01:53:17;;;;;;;27.53;16.97;;;7.10;99.90;;;;;;4404888;32;20197;-68
2020/12/02 01:55:51;;;;;;;27.03;18.30;;;7.10;99.90;;;;;;4382019;32;20179;-68
2020/12/02 01:58:26;;;;;;;25.93;17.80;;;7.00;99.90;;;;;;4385136;32;20194;-68
2020/12/02 02:01:10;;;;;;;25.73;17.23;;;6.90;99.90;;;;;;4395576;32;20147;-68
2020/12/02 02:03:39;;;;;;;26.67;18.00;;;6.90;99.90;;;;;;4398991;32;20242;-68
2020/12/02 02:06:22;;;;;;;30.10;18.73;;;6.90;99.90;;;;;;4397355;32;20171;-68
2020/12/02 02:08:53;;;;;;;26.70;17.53;;;7.00;99.90;;;;;;4399116;32;20175;-68
2020/12/02 02:11:25;;;;;;;27.37;17.90;;;6.90;99.90;;;;;;4397436;32;20148;-67
2020/12/02 02:14:22;;;;;;;27.73;17.67;;;6.80;99.90;;;;;;4398248;32;20144;-67
2020/12/02 02:17:01;;;;;;;27.83;17.90;;;7.00;99.90;;;;;;4403162;32;20422;-68
2020/12/02 02:19:32;;;;;;;27.97;18.53;;;7.00;99.90;;;;;;4400042;32;20173;-67
2020/12/02 02:22:05;;;;;;;28.63;17.43;;;7.00;99.90;;;;;;4399276;32;20211;-67
2020/12/02 02:24:55;;;;;;;30.63;19.50;;;7.00;99.90;;;;;;4391238;32;20216;-68
2020/12/02 02:27:26;;;;;;;29.10;18.47;;;7.10;99.90;;;;;;4389950;32;20163;-67
2020/12/02 02:30:01;;;;;;;28.73;18.10;;;7.10;99.90;;;;;;4396110;32;20231;-69
2020/12/02 02:32:37;;;;;;;27.27;18.10;;;7.10;99.90;;;;;;4402256;32;20155;-68
2020/12/02 02:35:10;;;;;;;26.93;17.27;;;7.00;99.90;;;;;;4401429;32;20632;-68
2020/12/02 02:37:41;;;;;;;31.00;19.30;;;7.10;99.90;;;;;;4391407;32;20488;-68
2020/12/02 02:40:11;;;;;;;29.83;18.17;;;7.10;99.90;;;;;;4391338;32;20159;-69
2020/12/02 02:42:43;;;;;;;27.87;18.33;;;7.00;99.90;;;;;;4388900;32;20190;-68
2020/12/02 02:45:15;;;;;;;32.00;18.50;;;7.00;99.90;;;;;;4389776;32;20641;-68
2020/12/02 02:50:44;;;;;;;29.20;19.43;;;7.00;99.90;;;;;;4371742;32;20262;-68
2020/12/02 02:53:19;;;;;;;31.00;19.23;;;7.00;99.90;;;;;;4370754;32;20203;-68
2020/12/02 02:55:45;;;;;;;28.73;18.03;;;7.00;99.90;;;;;;4368128;32;20175;-68
2020/12/02 02:58:26;;;;;;;26.90;17.47;;;7.00;99.90;;;;;;4371539;32;20230;-69
2020/12/02 03:00:56;;;;;;;27.50;18.30;;;7.00;99.90;;;;;;4367503;32;20177;-69
2020/12/02 03:03:30;;;;;;;30.40;18.13;;;7.10;99.90;;;;;;4361808;32;20165;-69
2020/12/02 03:05:56;;;;;;;29.10;19.10;;;7.00;99.90;;;;;;4365596;32;20164;-68
2020/12/02 03:08:24;;;;;;;31.80;19.10;;;7.00;99.90;;;;;;4357274;32;20589;-69
2020/12/02 03:10:50;;;;;;;29.50;18.17;;;7.00;99.90;;;;;;4357729;32;20200;-68
2020/12/02 03:13:29;;;;;;;30.90;19.10;;;6.90;99.90;;;;;;4368355;32;20161;-70
2020/12/02 03:16:00;;;;;;;29.10;17.50;;;6.90;99.90;;;;;;4364203;32;20152;-70
2020/12/02 03:18:27;;;;;;;29.83;17.53;;;7.00;99.90;;;;;;4371805;32;20187;-69
2020/12/02 03:21:00;;;;;;;26.20;16.93;;;7.00;99.90;;;;;;4372746;32;20203;-68
2020/12/02 03:23:27;;;;;;;28.70;17.13;;;7.00;99.90;;;;;;4389766;32;20170;-69
2020/12/02 03:25:55;;;;;;;26.97;18.07;;;7.00;99.90;;;;;;4389349;32;20155;-68
2020/12/02 03:28:28;;;;;;;27.97;16.80;;;7.00;99.90;;;;;;4394014;32;20170;-69
2020/12/02 03:30:59;;;;;;;28.93;18.03;;;7.00;99.90;;;;;;4400857;32;20189;-69
2020/12/02 03:33:26;;;;;;;26.13;16.70;;;7.00;99.90;;;;;;4390221;32;20156;-69
2020/12/02 03:35:55;;;;;;;26.43;16.80;;;7.10;99.90;;;;;;4390259;32;20156;-69
2020/12/02 03:38:23;;;;;;;27.83;18.77;;;7.10;99.90;;;;;;4399101;32;20505;-69
2020/12/02 03:40:51;;;;;;;24.60;16.47;;;7.10;99.90;;;;;;4391345;32;20176;-68
2020/12/02 03:43:22;;;;;;;24.63;16.53;;;7.10;99.90;;;;;;4400828;32;20166;-69
2020/12/02 03:46:08;;;;;;;25.77;16.63;;;7.10;99.90;;;;;;4405766;32;20167;-69
2020/12/02 03:48:37;;;;;;;31.47;18.77;;;7.10;99.90;;;;;;4389366;32;20543;-68
2020/12/02 03:51:08;;;;;;;30.00;17.97;;;7.10;99.90;;;;;;4391851;32;20152;-68
2020/12/02 03:53:35;;;;;;;26.47;17.40;;;7.20;99.90;;;;;;4388697;32;20527;-68
2020/12/02 03:56:03;;;;;;;31.30;18.70;;;7.10;99.90;;;;;;4390593;32;20168;-66
2020/12/02 03:58:34;;;;;;;32.37;18.83;;;7.00;99.90;;;;;;4398696;32;20239;-67
2020/12/02 04:01:04;;;;;;;27.90;17.70;;;7.10;99.90;;;;;;4388934;32;20203;-68
2020/12/02 04:03:44;;;;;;;27.67;17.10;;;7.00;99.90;;;;;;4188195;32;6614137;-68
2020/12/02 04:06:14;;;;;;;26.20;15.83;;;7.00;99.90;;;;;;4402469;32;20243;-68
2020/12/02 04:08:43;;;;;;;25.33;17.17;;;7.00;99.90;;;;;;4399625;32;20624;-68
2020/12/02 04:11:13;;;;;;;29.93;18.13;;;7.10;99.90;;;;;;4389033;32;20236;-68
2020/12/02 04:13:42;;;;;;;28.43;18.13;;;7.10;99.90;;;;;;4391433;32;20191;-69
2020/12/02 04:16:12;;;;;;;26.43;18.30;;;7.10;99.90;;;;;;4397807;32;20190;-68
2020/12/02 04:18:43;;;;;;;27.77;17.27;;;7.00;99.90;;;;;;4385598;32;21148;-68
2020/12/02 04:21:12;;;;;;;27.23;17.60;;;7.00;99.90;;;;;;4397680;32;20209;-67
2020/12/02 04:23:58;;;;;;;27.50;17.70;;;7.00;99.90;;;;;;4389349;32;20183;-67
2020/12/02 04:26:29;;;;;;;27.20;16.63;;;7.10;99.90;;;;;;4400442;32;20170;-67
2020/12/02 04:28:57;;;;;;;28.50;18.20;;;7.00;99.90;;;;;;4391043;32;20186;-67
2020/12/02 04:31:26;;;;;;;29.33;17.73;;;6.90;99.90;;;;;;4404629;32;20213;-68
2020/12/02 04:33:53;;;;;;;30.00;17.53;;;6.80;99.90;;;;;;4402026;32;20694;-68
2020/12/02 04:36:19;;;;;;;25.20;17.53;;;6.90;99.90;;;;;;4403504;32;20308;-68
2020/12/02 04:38:46;;;;;;;28.93;17.70;;;6.90;99.90;;;;;;4404435;32;20179;-67
2020/12/02 04:41:17;;;;;;;29.37;17.03;;;6.90;99.90;;;;;;4404780;32;20195;-68
2020/12/02 04:43:49;;;;;;;27.30;17.27;;;6.80;99.90;;;;;;4402567;32;20160;-66
2020/12/02 04:46:19;;;;;;;27.83;17.50;;;6.80;99.90;;;;;;4404473;32;20179;-67
2020/12/02 04:48:52;;;;;;;25.27;17.17;;;6.90;99.90;;;;;;4403465;32;20242;-67
2020/12/02 04:51:29;;;;;;;33.03;18.80;;;6.90;99.90;;;;;;4393272;32;20160;-68
2020/12/02 04:54:02;;;;;;;27.93;18.17;;;7.00;99.90;;;;;;4391735;32;20172;-69
2020/12/02 04:56:43;;;;;;;32.57;17.67;;;7.00;99.90;;;;;;4391229;32;20156;-68
2020/12/02 04:59:23;;;;;;;26.53;17.03;;;7.00;99.90;;;;;;4394388;32;20178;-68
2020/12/02 05:01:56;;;;;;;26.07;17.70;;;7.00;99.90;;;;;;4403912;32;20297;-68
2020/12/02 05:04:27;;;;;;;25.87;16.73;;;7.00;99.90;;;;;;4391736;32;20311;-68
2020/12/02 05:07:11;;;;;;;32.67;19.00;;;7.00;99.90;;;;;;4396304;32;20219;-68
2020/12/02 05:10:01;;;;;;;28.97;17.03;;;7.00;99.90;;;;;;4401731;32;20194;-68
2020/12/02 05:12:39;;;;;;;32.33;19.27;;;7.10;99.90;;;;;;4392483;32;20237;-68
2020/12/02 05:15:19;;;;;;;27.47;16.67;;;7.00;99.90;;;;;;4401308;32;20160;-68
2020/12/02 05:18:02;;;;;;;30.97;18.03;;;7.00;99.90;;;;;;4400910;32;20184;-68
2020/12/02 05:20:36;;;;;;;31.17;19.37;;;7.00;99.90;;;;;;4395825;32;20603;-68
2020/12/02 05:23:14;;;;;;;30.97;18.43;;;6.80;99.90;;;;;;4394857;32;20185;-67
2020/12/02 05:25:43;;;;;;;33.03;17.90;;;6.90;99.90;;;;;;4391392;32;20191;-67
2020/12/02 05:28:24;;;;;;;29.87;17.47;;;6.80;99.90;;;;;;4398066;32;20211;-67
2020/12/02 05:31:12;;;;;;;31.40;18.20;;;6.70;99.90;;;;;;4405434;32;20207;-69
2020/12/02 05:33:41;;;;;;;29.37;18.67;;;6.70;99.90;;;;;;4404159;32;20167;-67
2020/12/02 05:36:17;;;;;;;32.77;18.83;;;6.80;99.90;;;;;;4405439;32;20220;-67
2020/12/02 05:38:57;;;;;;;32.70;19.47;;;6.90;99.90;;;;;;4389801;32;20219;-69
2020/12/02 05:41:26;;;;;;;31.60;18.73;;;6.90;99.90;;;;;;4398695;32;20159;-67
2020/12/02 05:43:57;;;;;;;33.00;19.60;;;6.80;99.90;;;;;;4403953;32;20174;-69
2020/12/02 05:46:49;;;;;;;31.33;19.77;;;6.80;99.90;;;;;;4392115;32;20176;-69
2020/12/02 05:49:33;;;;;;;30.30;18.33;;;6.80;99.90;;;;;;4394485;32;20212;-68
2020/12/02 05:52:13;;;;;;;29.00;18.43;;;6.80;99.90;;;;;;4397016;32;20178;-69
2020/12/02 05:54:44;;;;;;;29.43;18.80;;;6.80;99.90;;;;;;4396375;32;20236;-69
2020/12/02 05:57:24;;;;;;;28.10;17.73;;;6.90;99.90;;;;;;4402824;32;20183;-70
2020/12/02 05:59:56;;;;;;;34.63;20.13;;;6.90;99.90;;;;;;4393896;32;20231;-70
2020/12/02 06:02:25;;;;;;;31.63;18.93;;;6.90;99.90;;;;;;4405093;32;20156;-68
2020/12/02 06:04:54;;;;;;;31.50;19.17;;;6.80;99.90;;;;;;4393903;32;20507;-69
2020/12/02 06:07:30;;;;;;;29.63;18.30;;;6.90;99.90;;;;;;4390068;32;20483;-69
2020/12/02 06:09:59;;;;;;;30.00;18.03;;;6.80;99.90;;;;;;4397753;32;20194;-69
2020/12/02 06:12:40;;;;;;;27.77;17.07;;;6.80;99.90;;;;;;4394668;32;20152;-68
2020/12/02 06:15:24;;;;;;;26.97;17.17;;;6.90;99.90;;;;;;4393921;32;20591;-67
2020/12/02 06:18:13;;;;;;;31.03;18.40;;;6.90;99.90;;;;;;4392518;32;20606;-69
2020/12/02 06:20:53;;;;;;;30.90;18.33;;;6.90;99.90;;;;;;4396312;32;20554;-68
2020/12/02 06:23:26;;;;;;;31.27;18.37;;;6.70;99.90;;;;;;4392914;32;20601;-68
2020/12/02 06:25:56;;;;;;;30.87;18.37;;;6.70;99.90;;;;;;4394037;32;20174;-67
2020/12/02 06:28:47;;;;;;;26.80;17.10;;;6.70;99.90;;;;;;4395116;32;20162;-68
2020/12/02 06:31:23;;;;;;;28.63;17.13;;;6.70;99.90;;;;;;4394403;32;20228;-68
2020/12/02 06:33:50;;;;;;;34.93;19.90;;;6.80;99.90;;;;;;4395424;32;20222;-68
2020/12/02 06:36:25;;;;;;;29.10;17.03;;;6.70;99.90;;;;;;4393942;32;20488;-67
2020/12/02 06:39:21;;;;;;;29.90;17.77;;;6.70;99.90;;;;;;4398242;32;20168;-67
2020/12/02 06:41:51;;;;;;;29.97;17.73;;;6.70;99.90;;;;;;4393655;32;20219;-67
2020/12/02 06:44:41;;;;;;;29.07;17.50;;;6.60;99.90;;;;;;4394336;32;20175;-66
2020/12/02 06:47:28;;;;;;;28.10;18.53;;;6.50;99.90;;;;;;4392524;32;20171;-68
2020/12/02 06:50:04;;;;;;;30.13;18.40;;;6.50;99.90;;;;;;4390404;32;20172;-67
2020/12/02 06:52:37;;;;;;;29.90;18.00;;;6.50;99.90;;;;;;4392460;32;20194;-69
2020/12/02 06:55:23;;;;;;;29.10;17.47;;;6.50;99.90;;;;;;4390978;32;20159;-67
2020/12/02 06:57:56;;;;;;;33.37;18.93;;;6.50;99.90;;;;;;4394380;32;20324;-69
2020/12/02 07:00:28;;;;;;;29.97;18.50;;;6.50;99.90;;;;;;4390585;32;20250;-69
2020/12/02 07:03:00;;;;;;;30.07;18.10;;;6.50;99.90;;;;;;4396165;32;20709;-69
2020/12/02 07:05:34;;;;;;;26.13;17.27;;;6.50;99.90;;;;;;4393020;32;20179;-67
2020/12/02 07:08:17;;;;;;;28.83;17.73;;;6.40;99.90;;;;;;4395127;32;20175;-67
2020/12/02 07:11:12;;;;;;;29.90;18.60;;;6.60;99.90;;;;;;4392234;32;20602;-66
2020/12/02 07:13:46;;;;;;;27.77;17.40;;;6.60;99.90;;;;;;4392672;32;20248;-68
2020/12/02 07:16:25;;;;;;;30.57;18.20;;;6.60;99.90;;;;;;4393512;32;20166;-66
2020/12/02 07:18:58;;;;;;;28.67;16.97;;;6.70;99.90;;;;;;4389759;32;20167;-70
2020/12/02 07:21:36;;;;;;;25.87;16.50;;;6.70;99.90;;;;;;4388942;32;20147;-69
2020/12/02 07:24:14;;;;;;;29.17;17.80;;;6.70;99.90;;;;;;4396401;32;20183;-68
2020/12/02 07:26:41;;;;;;;27.07;17.47;;;6.60;99.90;;;;;;4389141;32;20188;-68
2020/12/02 07:29:20;;;;;;;33.87;18.23;;;6.60;99.90;;;;;;4389152;32;20172;-68
2020/12/02 07:32:04;;;;;;;29.17;17.47;;;6.60;99.90;;;;;;4404179;32;20190;-69
2020/12/02 07:34:34;;;;;;;31.63;18.93;;;6.70;99.90;;;;;;4398599;32;20191;-68
2020/12/02 07:37:10;;;;;;;34.53;20.63;;;6.70;99.90;;;;;;4400291;32;20190;-67
2020/12/02 07:40:01;;;;;;;30.47;18.53;;;6.60;99.90;;;;;;4392450;32;20202;-69
2020/12/02 07:42:33;;;;;;;28.87;18.47;;;6.60;99.90;;;;;;4400002;32;20419;-68
2020/12/02 07:45:06;;;;;;;31.17;19.37;;;6.60;99.90;;;;;;4403140;32;20256;-68
2020/12/02 07:47:36;;;;;;;28.83;18.50;;;6.70;99.90;;;;;;4400823;32;20209;-68
2020/12/02 07:50:18;;;;;;;29.07;17.40;;;6.60;99.90;;;;;;4403964;32;20163;-67
2020/12/02 07:52:49;;;;;;;30.73;18.73;;;6.60;99.90;;;;;;4401600;32;20178;-67
2020/12/02 07:55:23;;;;;;;30.70;20.60;;;6.50;99.90;;;;;;4390592;32;20611;-67
2020/12/02 07:57:56;;;;;;;32.47;19.60;;;6.60;99.90;;;;;;4396273;32;20586;-67
2020/12/02 08:00:28;;;;;;;31.50;19.03;;;6.60;99.90;;;;;;4396807;32;20182;-68
2020/12/02 08:02:55;;;;;;;31.73;19.30;;;6.70;99.90;;;;;;4392480;32;20671;-67
2020/12/02 08:05:45;;;;;;;36.20;19.83;;;6.80;99.90;;;;;;4396027;32;20577;-68
2020/12/02 08:08:18;;;;;;;32.53;19.87;;;6.80;99.90;;;;;;4339012;33;20169;-67
2020/12/02 08:11:11;;;;;;;34.43;19.40;;;6.80;99.90;;;;;;4333226;33;20199;-68
2020/12/02 08:13:49;;;;;;;35.30;21.03;;;6.80;99.90;;;;;;4330995;33;20173;-69
2020/12/02 08:16:44;;;;;;;37.93;20.87;;;6.70;99.90;;;;;;4329686;33;20300;-68
2020/12/02 08:19:27;;;;;;;35.63;21.13;;;6.70;99.90;;;;;;4338231;33;20234;-67
2020/12/02 08:22:07;;;;;;;34.00;19.90;;;6.70;99.90;;;;;;4330712;33;20165;-67
2020/12/02 08:24:40;;;;;;;36.77;21.43;;;6.70;99.90;;;;;;4335400;33;20187;-67
2020/12/02 08:27:13;;;;;;;33.57;19.57;;;6.70;99.90;;;;;;4329818;33;20176;-69
2020/12/02 08:29:50;;;;;;;36.30;20.43;;;6.70;99.90;;;;;;4335329;33;20196;-67
2020/12/02 08:32:40;;;;;;;33.63;19.53;;;6.70;99.90;;;;;;4342067;33;20234;-68
2020/12/02 08:35:30;;;;;;;38.40;20.37;;;6.90;99.90;;;;;;4336958;33;20188;-68
2020/12/02 08:38:05;;;;;;;32.00;19.67;;;6.80;99.90;;;;;;4340169;33;20168;-67
2020/12/02 08:40:46;;;;;;;35.63;20.50;;;6.80;99.90;;;;;;4331862;33;20235;-69
2020/12/02 08:43:31;;;;;;;34.17;20.20;;;6.80;99.90;;;;;;4336484;33;20230;-67
2020/12/02 08:46:07;;;;;;;45.07;20.33;;;6.80;99.90;;;;;;4381844;32;20456;-68
2020/12/02 08:48:59;;;;;;;39.27;21.80;;;6.80;99.90;;;;;;4394683;32;20231;-68
2020/12/02 08:51:30;;;;;;;34.00;19.80;;;6.70;99.90;;;;;;4401809;32;20205;-68
2020/12/02 08:54:15;;;;;;;35.77;20.97;;;6.70;99.90;;;;;;4391210;32;20156;-70
2020/12/02 08:56:55;;;;;;;35.83;20.03;;;6.80;99.90;;;;;;4393077;32;20163;-67
2020/12/02 08:59:31;;;;;;;36.23;21.10;;;6.80;99.90;;;;;;4395779;32;20182;-67
2020/12/02 09:02:20;;;;;;;33.53;19.97;;;6.70;99.90;;;;;;4396813;32;20242;-67
2020/12/02 09:04:48;;;;;;;36.53;20.97;;;6.80;99.90;;;;;;4400622;32;20596;-69
2020/12/02 09:07:18;;;;;;;33.23;20.20;;;6.80;99.90;;;;;;4398916;32;20174;-69
2020/12/02 09:12:27;;;;;;;32.50;19.57;;;6.70;99.90;;;;;;4397328;32;20206;-67
2020/12/02 09:14:59;;;;;;;37.27;21.17;;;6.70;99.90;;;;;;4404909;32;20216;-67
2020/12/02 09:17:39;;;;;;;37.23;20.67;;;6.70;99.90;;;;;;4399790;32;20202;-66
2020/12/02 09:23:05;;;;;;;40.20;21.70;;;6.70;99.90;;;;;;4394404;32;20184;-69
2020/12/02 09:25:33;;;;;;;41.57;22.70;;;6.80;99.90;;;;;;4397206;32;20426;-68
2020/12/02 09:28:31;;;;;;;39.47;20.93;;;6.70;99.90;;;;;;4397339;32;20187;-67
2020/12/02 09:31:06;;;;;;;32.57;20.33;;;6.80;99.90;;;;;;4400179;32;20171;-67
2020/12/02 09:33:51;;;;;;;38.97;21.53;;;6.80;99.90;;;;;;4391674;32;20620;-66
2020/12/02 09:36:26;;;;;;;38.40;22.00;;;6.90;99.90;;;;;;4394052;32;20608;-67
2020/12/02 09:38:57;;;;;;;39.67;22.43;;;6.90;99.90;;;;;;4390309;32;20178;-66
2020/12/02 09:41:40;;;;;;;43.53;22.23;;;6.90;99.90;;;;;;4392065;32;20148;-67
2020/12/02 09:44:32;;;;;;;40.93;23.03;;;6.90;99.90;;;;;;4394742;32;20174;-67
2020/12/02 09:47:13;;;;;;;47.83;23.07;;;6.90;99.90;;;;;;4391163;32;20147;-68
2020/12/02 09:50:10;;;;;;;41.43;22.47;;;6.90;99.90;;;;;;4391216;32;20152;-67
2020/12/02 09:52:42;;;;;;;43.77;22.60;;;6.90;99.90;;;;;;4390986;32;20469;-67
2020/12/02 09:55:15;;;;;;;38.20;20.87;;;7.00;99.90;;;;;;4395158;32;20223;-67
2020/12/02 09:58:03;;;;;;;45.10;23.20;;;7.10;99.90;;;;;;4391024;32;20160;-67
2020/12/02 10:00:41;;;;;;;40.70;21.97;;;7.00;99.90;;;;;;4397875;32;20210;-68
2020/12/02 10:03:46;;;;;;;41.00;21.97;;;7.00;99.90;;;;;;4392093;32;20207;-68
2020/12/02 10:06:50;;;;;;;36.73;21.10;;;7.10;99.90;;;;;;4391198;32;20596;-67
2020/12/02 10:09:52;;;;;;;44.33;23.37;;;7.10;99.90;;;;;;4392203;32;20235;-68
2020/12/02 10:12:34;;;;;;;41.93;22.67;;;7.00;99.90;;;;;;4325266;33;20179;-70
2020/12/02 10:15:38;;;;;;;42.07;22.20;;;7.00;99.90;;;;;;4307671;33;20552;-69
2020/12/02 10:18:50;;;;;;;41.30;22.20;;;7.00;99.90;;;;;;4294837;33;20476;-69
2020/12/02 10:22:00;;;;;;;45.20;23.33;;;7.10;99.90;;;;;;4292187;33;20150;-68
2020/12/02 10:24:45;;;;;;;38.93;21.23;;;7.10;99.90;;;;;;4284850;33;20166;-67
2020/12/02 10:28:03;;;;;;;39.17;22.27;;;7.10;99.90;;;;;;4288303;33;20193;-68
2020/12/02 10:30:38;;;;;;;39.67;20.63;;;7.10;99.90;;;;;;4269993;33;20197;-68
2020/12/02 10:33:41;;;;;;;39.70;21.67;;;7.10;99.90;;;;;;4264476;33;20487;-68
2020/12/02 10:36:09;;;;;;;39.63;22.40;;;7.20;99.90;;;;;;4211124;34;20183;-68
2020/12/02 10:38:43;;;;;;;45.43;23.57;;;7.20;99.90;;;;;;4213741;34;20232;-68
2020/12/02 10:41:22;;;;;;;37.67;20.87;;;7.20;99.90;;;;;;4212800;34;20278;-68
2020/12/02 10:44:19;;;;;;;40.43;21.60;;;7.20;99.90;;;;;;4210267;34;20175;-68
2020/12/02 10:47:24;;;;;;;43.10;22.67;;;7.20;99.90;;;;;;4208544;34;20250;-69
2020/12/02 10:50:15;;;;;;;43.97;21.70;;;7.20;99.90;;;;;;4242276;33;20318;-68
2020/12/02 10:53:28;;;;;;;43.00;22.30;;;7.30;99.90;;;;;;4255229;33;20605;-68
2020/12/02 10:56:07;;;;;;;36.77;21.33;;;7.30;99.90;;;;;;4239798;33;20159;-69
2020/12/02 10:58:39;;;;;;;38.13;21.67;;;7.40;99.90;;;;;;4242525;33;20689;-67
2020/12/02 11:03:54;;;;;;;35.77;20.30;;;7.40;99.90;;;;;;4245778;33;20670;-67
2020/12/02 11:06:48;;;;;;;37.93;21.53;;;7.40;99.90;;;;;;4254075;33;20205;-68
2020/12/02 11:09:40;;;;;;;38.33;21.37;;;7.40;99.90;;;;;;4270051;33;20166;-68
2020/12/02 11:12:48;;;;;;;37.47;20.90;;;7.40;99.90;;;;;;4275092;33;20599;-68
2020/12/02 11:15:57;;;;;;;38.43;20.83;;;7.50;99.90;;;;;;4344105;33;20208;-68
2020/12/02 11:22:04;;;;;;;36.37;20.73;;;7.50;99.90;;;;;;4341767;33;20585;-67
2020/12/02 11:24:54;;;;;;;33.73;20.60;;;7.40;99.90;;;;;;4331317;33;20196;-68
2020/12/02 11:27:23;;;;;;;38.20;21.30;;;7.30;99.90;;;;;;4342457;33;20230;-68
2020/12/02 11:29:55;;;;;;;38.77;21.13;;;7.30;99.90;;;;;;4342229;33;20171;-68
2020/12/02 11:33:06;;;;;;;37.23;20.00;;;7.40;99.90;;;;;;4346963;32;20205;-67
2020/12/02 11:36:01;;;;;;;35.70;19.63;;;7.30;99.90;;;;;;4390834;32;20210;-67
2020/12/02 11:38:33;;;;;;;34.00;19.07;;;7.30;99.90;;;;;;4392147;32;20547;-68
2020/12/02 11:41:10;;;;;;;36.20;20.47;;;7.40;99.90;;;;;;4395354;32;20572;-67
2020/12/02 11:43:51;;;;;;;34.17;18.77;;;7.40;99.90;;;;;;4393720;32;20175;-67
2020/12/02 11:46:28;;;;;;;30.43;17.50;;;7.40;99.90;;;;;;4390301;32;20178;-67
2020/12/02 11:49:09;;;;;;;35.60;19.03;;;7.40;99.90;;;;;;4395263;32;20171;-67
2020/12/02 11:51:50;;;;;;;37.27;21.30;;;7.40;99.90;;;;;;4394047;32;20205;-67
2020/12/02 11:54:16;;;;;;;33.00;20.40;;;7.40;99.90;;;;;;4388986;32;20216;-67
2020/12/02 11:56:51;;;;;;;34.90;19.97;;;7.40;99.90;;;;;;4392120;32;20174;-70
2020/12/02 12:02:25;;;;;;;34.93;20.53;;;7.40;99.90;;;;;;4388761;32;20205;-67
2020/12/02 12:05:04;;;;;;;33.67;18.43;;;7.50;99.90;;;;;;4388796;32;20163;-68
2020/12/02 12:07:54;;;;;;;36.87;20.20;;;7.50;99.90;;;;;;4388394;32;20229;-68
2020/12/02 12:10:32;;;;;;;34.43;18.73;;;7.50;99.90;;;;;;4389073;32;20237;-67
2020/12/02 12:13:09;;;;;;;31.43;18.27;;;7.50;99.90;;;;;;4399272;32;20159;-68
2020/12/02 12:15:41;;;;;;;40.80;19.47;;;7.50;99.90;;;;;;4404118;32;20147;-67
2020/12/02 12:18:14;;;;;;;35.77;19.83;;;7.40;99.90;;;;;;4403924;32;20152;-68
2020/12/02 12:20:48;;;;;;;37.47;20.60;;;7.50;99.90;;;;;;4395956;32;20179;-68
2020/12/02 12:23:28;;;;;;;37.00;20.10;;;7.50;99.90;;;;;;4384714;32;20178;-67
2020/12/02 12:26:11;;;;;;;37.03;19.57;;;7.50;99.90;;;;;;4390201;32;20164;-69
2020/12/02 12:28:40;;;;;;;31.67;18.70;;;7.50;99.90;;;;;;4400254;32;20171;-67
2020/12/02 12:31:26;;;;;;;30.90;18.10;;;7.60;99.90;;;;;;4391256;32;20186;-67
2020/12/02 12:34:06;;;;;;;30.80;18.17;;;7.60;99.90;;;;;;4388415;32;20209;-67
2020/12/02 12:36:40;;;;;;;34.27;20.30;;;7.60;99.90;;;;;;4390676;32;20487;-68
2020/12/02 12:39:16;;;;;;;34.23;19.03;;;7.60;99.90;;;;;;4390507;32;20148;-69
2020/12/02 12:42:07;;;;;;;32.63;19.53;;;7.60;99.90;;;;;;4397894;32;20151;-68
2020/12/02 12:44:36;;;;;;;39.87;19.87;;;7.60;99.90;;;;;;4394863;32;20156;-68
2020/12/02 12:47:14;;;;;;;32.37;18.03;;;7.70;99.90;;;;;;4394224;32;20183;-69
2020/12/02 12:49:40;;;;;;;37.30;19.17;;;7.60;99.90;;;;;;4396804;32;20229;-68
2020/12/02 12:52:07;;;;;;;33.50;18.67;;;7.60;99.90;;;;;;4398215;32;20173;-69
2020/12/02 12:54:34;;;;;;;33.90;20.07;;;7.60;99.90;;;;;;4396705;32;20228;-68
2020/12/02 12:57:02;;;;;;;35.23;19.97;;;7.60;99.90;;;;;;4398057;32;20222;-68
2020/12/02 12:59:31;;;;;;;35.70;21.03;;;7.60;99.90;;;;;;4399154;32;20210;-68
2020/12/02 13:02:18;;;;;;;45.67;23.47;;;7.70;99.90;;;;;;4397319;32;20164;-69
2020/12/02 13:04:44;;;;;;;36.83;19.80;;;7.60;99.90;;;;;;4400077;32;20266;-67
2020/12/02 13:07:22;;;;;;;38.97;21.00;;;7.60;99.90;;;;;;4400146;32;20205;-69
2020/12/02 13:10:15;;;;;;;37.73;21.17;;;7.50;99.90;;;;;;4406044;32;20159;-67
2020/12/02 13:12:54;;;;;;;40.30;22.10;;;7.60;99.90;;;;;;4405928;32;20148;-67
2020/12/02 13:15:29;;;;;;;34.93;20.93;;;7.60;99.90;;;;;;4397165;32;20190;-68
2020/12/02 13:18:20;;;;;;;40.60;20.23;;;7.70;99.90;;;;;;4402144;32;20260;-68
2020/12/02 13:20:53;;;;;;;33.73;20.37;;;7.50;99.90;;;;;;4405496;32;20212;-67
2020/12/02 13:23:28;;;;;;;34.67;20.87;;;7.50;99.90;;;;;;4392879;32;20147;-68
2020/12/02 13:26:10;;;;;;;37.73;21.30;;;7.60;99.90;;;;;;4405146;32;20154;-67
2020/12/02 13:28:42;;;;;;;39.20;21.67;;;7.50;99.90;;;;;;4396633;32;20222;-66
2020/12/02 13:31:15;;;;;;;40.60;20.20;;;7.40;99.90;;;;;;4396602;32;20209;-68
2020/12/02 13:33:43;;;;;;;35.30;21.33;;;7.40;99.90;;;;;;4393416;32;20168;-68
2020/12/02 13:36:20;;;;;;;30.00;19.40;;;7.40;99.90;;;;;;4397445;32;20166;-67
2020/12/02 13:38:46;;;;;;;35.07;20.37;;;7.50;99.90;;;;;;4395930;32;20155;-67
2020/12/02 13:41:21;;;;;;;34.23;20.23;;;7.50;99.90;;;;;;4398632;32;20172;-68
2020/12/02 13:44:07;;;;;;;40.23;21.03;;;7.50;99.90;;;;;;4398337;32;20193;-69
2020/12/02 13:46:33;;;;;;;33.93;19.47;;;7.40;99.90;;;;;;4392442;32;20159;-68